<?xml version="1.0" encoding="UTF-8" standalone="no" ?>
<gpx xmlns="http://www.topografix.com/GPX/1/1" xmlns:xsi="http://www.w3.org/2001/XMLSchema-instance" xsi:schemaLocation="http://www.topografix.com/GPX/1/1 http://www.topografix.com/GPX/1/1/gpx.xsd" version="1.1" creator="VisuGPX - https://www.visugpx.com">
  <metadata>
    <name>skirando tete dure</name>
    <desc><![CDATA[on suit la station, puis la foret, puis un peu de crampons entre les paravalanches du haut (trop à gauche ?). la montée s'adoucit sous tête dure. belle vue du sommet. on redescend en E jusqu'à un replat. remontée en passant par le col remy. puis descente S. très bon dans les paravalanches, un peu piegeux en forêt (devenu trop mou) puis bon sur la piste, type névé. avec les amis.]]></desc>
  </metadata>
  <wpt lat="44.4514" lon="6.84635">
    <ele>1619.5</ele>
    <name><![CDATA[0000224]]></name>
    <type><![CDATA[Point de départ]]></type>
  </wpt>
  <wpt lat="44.45052" lon="6.8481">
    <ele>1699.2</ele>
    <name><![CDATA[0000225]]></name>
    <desc><![CDATA[<p><br /><h3>Nom: Segment: 1</h3><br />Heure de départ: 04/16/2018 06:16<br/>Heure d'arrivée: 04/16/2018 11:29<br/>Distance: 9,2km (05:13)<br/>Temps déplacement: 02:15<br/>Vitesse moyenne: 1,76 km/h<br/>Vitesse moyenne mouv.: 4,03 km/h<br/>Vitesse Max.: 38,49 km/h<br/>Altitude minimale: 1619 m<br/>Altitude maximale: 2629 m<br/>Vitesse de montée: 292,9 m/h<br/>Vitesse de descente: -1469,5 m/h<br/>Gain d'altitude: 1287 m<br/>Perte d'altitude: -1203 m<br/>Temps de montée: 04:23<br/>Temps de descente: 00:49<br/></p>]]></desc>
    <type><![CDATA[Point d'arrivée]]></type>
  </wpt>
  <trk>
    <name><![CDATA[2018-04-16 06:16 tête dure]]></name>
    <trkseg>
      <trkpt lat="44.45123" lon="6.84617">
        <ele>1667.48</ele>
        <time>2018-04-16T04:17:25.000Z</time>
      </trkpt>
      <trkpt lat="44.45104" lon="6.84627">
        <ele>1668.5</ele>
        <time>2018-04-16T04:18:09.000Z</time>
      </trkpt>
      <trkpt lat="44.45087" lon="6.84656">
        <ele>1667.87</ele>
        <time>2018-04-16T04:18:29.000Z</time>
      </trkpt>
      <trkpt lat="44.45077" lon="6.8468">
        <ele>1667.02</ele>
        <time>2018-04-16T04:18:49.000Z</time>
      </trkpt>
      <trkpt lat="44.45069" lon="6.84707">
        <ele>1666.2</ele>
        <time>2018-04-16T04:19:05.000Z</time>
      </trkpt>
      <trkpt lat="44.45059" lon="6.84735">
        <ele>1665.57</ele>
        <time>2018-04-16T04:19:21.000Z</time>
      </trkpt>
      <trkpt lat="44.45054" lon="6.84767">
        <ele>1664.83</ele>
        <time>2018-04-16T04:19:41.000Z</time>
      </trkpt>
      <trkpt lat="44.45052" lon="6.848">
        <ele>1665.12</ele>
        <time>2018-04-16T04:19:57.000Z</time>
      </trkpt>
      <trkpt lat="44.45061" lon="6.84825">
        <ele>1671.91</ele>
        <time>2018-04-16T04:21:53.000Z</time>
      </trkpt>
      <trkpt lat="44.45061" lon="6.84852">
        <ele>1677.2</ele>
        <time>2018-04-16T04:22:29.000Z</time>
      </trkpt>
      <trkpt lat="44.4506" lon="6.84879">
        <ele>1681.75</ele>
        <time>2018-04-16T04:23:01.000Z</time>
      </trkpt>
      <trkpt lat="44.4506" lon="6.84905">
        <ele>1685.13</ele>
        <time>2018-04-16T04:23:29.000Z</time>
      </trkpt>
      <trkpt lat="44.45066" lon="6.84932">
        <ele>1688.34</ele>
        <time>2018-04-16T04:24:01.000Z</time>
      </trkpt>
      <trkpt lat="44.45075" lon="6.84957">
        <ele>1690.83</ele>
        <time>2018-04-16T04:24:37.000Z</time>
      </trkpt>
      <trkpt lat="44.45081" lon="6.84982">
        <ele>1692.06</ele>
        <time>2018-04-16T04:25:21.000Z</time>
      </trkpt>
      <trkpt lat="44.45094" lon="6.85003">
        <ele>1693.95</ele>
        <time>2018-04-16T04:25:49.000Z</time>
      </trkpt>
      <trkpt lat="44.45102" lon="6.85025">
        <ele>1696.67</ele>
        <time>2018-04-16T04:26:20.000Z</time>
      </trkpt>
      <trkpt lat="44.45112" lon="6.85046">
        <ele>1700.25</ele>
        <time>2018-04-16T04:26:56.000Z</time>
      </trkpt>
      <trkpt lat="44.45122" lon="6.85071">
        <ele>1703.98</ele>
        <time>2018-04-16T04:27:32.000Z</time>
      </trkpt>
      <trkpt lat="44.45133" lon="6.85093">
        <ele>1708.26</ele>
        <time>2018-04-16T04:28:08.000Z</time>
      </trkpt>
      <trkpt lat="44.4514" lon="6.85117">
        <ele>1710.75</ele>
        <time>2018-04-16T04:28:40.000Z</time>
      </trkpt>
      <trkpt lat="44.45148" lon="6.8514">
        <ele>1716.09</ele>
        <time>2018-04-16T04:29:20.000Z</time>
      </trkpt>
      <trkpt lat="44.4516" lon="6.85159">
        <ele>1721.52</ele>
        <time>2018-04-16T04:29:56.000Z</time>
      </trkpt>
      <trkpt lat="44.45172" lon="6.8518">
        <ele>1724.09</ele>
        <time>2018-04-16T04:30:28.000Z</time>
      </trkpt>
      <trkpt lat="44.4518" lon="6.85204">
        <ele>1726.42</ele>
        <time>2018-04-16T04:30:56.000Z</time>
      </trkpt>
      <trkpt lat="44.45187" lon="6.85227">
        <ele>1730.37</ele>
        <time>2018-04-16T04:31:32.000Z</time>
      </trkpt>
      <trkpt lat="44.45194" lon="6.85253">
        <ele>1732.57</ele>
        <time>2018-04-16T04:32:08.000Z</time>
      </trkpt>
      <trkpt lat="44.45206" lon="6.85274">
        <ele>1739.67</ele>
        <time>2018-04-16T04:32:48.000Z</time>
      </trkpt>
      <trkpt lat="44.45222" lon="6.85293">
        <ele>1744.93</ele>
        <time>2018-04-16T04:33:28.000Z</time>
      </trkpt>
      <trkpt lat="44.45235" lon="6.85311">
        <ele>1747.85</ele>
        <time>2018-04-16T04:33:56.000Z</time>
      </trkpt>
      <trkpt lat="44.45255" lon="6.85312">
        <ele>1752.31</ele>
        <time>2018-04-16T04:34:32.000Z</time>
      </trkpt>
      <trkpt lat="44.45274" lon="6.85314">
        <ele>1754.89</ele>
        <time>2018-04-16T04:35:00.000Z</time>
      </trkpt>
      <trkpt lat="44.45287" lon="6.8533">
        <ele>1757.21</ele>
        <time>2018-04-16T04:35:36.000Z</time>
      </trkpt>
      <trkpt lat="44.45292" lon="6.85356">
        <ele>1758.59</ele>
        <time>2018-04-16T04:36:04.000Z</time>
      </trkpt>
      <trkpt lat="44.4529" lon="6.85382">
        <ele>1762.34</ele>
        <time>2018-04-16T04:36:36.000Z</time>
      </trkpt>
      <trkpt lat="44.45292" lon="6.8541">
        <ele>1768.68</ele>
        <time>2018-04-16T04:37:12.000Z</time>
      </trkpt>
      <trkpt lat="44.4529" lon="6.85435">
        <ele>1775.89</ele>
        <time>2018-04-16T04:37:48.000Z</time>
      </trkpt>
      <trkpt lat="44.45292" lon="6.85461">
        <ele>1780.35</ele>
        <time>2018-04-16T04:38:16.000Z</time>
      </trkpt>
      <trkpt lat="44.45283" lon="6.85487">
        <ele>1786.32</ele>
        <time>2018-04-16T04:38:56.000Z</time>
      </trkpt>
      <trkpt lat="44.45278" lon="6.85516">
        <ele>1792.84</ele>
        <time>2018-04-16T04:39:32.000Z</time>
      </trkpt>
      <trkpt lat="44.45269" lon="6.85543">
        <ele>1799.32</ele>
        <time>2018-04-16T04:40:04.000Z</time>
      </trkpt>
      <trkpt lat="44.4526" lon="6.85566">
        <ele>1806.85</ele>
        <time>2018-04-16T04:40:40.000Z</time>
      </trkpt>
      <trkpt lat="44.45257" lon="6.85592">
        <ele>1813.28</ele>
        <time>2018-04-16T04:41:12.000Z</time>
      </trkpt>
      <trkpt lat="44.45258" lon="6.85618">
        <ele>1819.41</ele>
        <time>2018-04-16T04:41:40.000Z</time>
      </trkpt>
      <trkpt lat="44.45252" lon="6.85643">
        <ele>1830.75</ele>
        <time>2018-04-16T04:45:57.000Z</time>
      </trkpt>
      <trkpt lat="44.45243" lon="6.85666">
        <ele>1836.41</ele>
        <time>2018-04-16T04:46:37.000Z</time>
      </trkpt>
      <trkpt lat="44.45233" lon="6.85688">
        <ele>1841.27</ele>
        <time>2018-04-16T04:47:09.000Z</time>
      </trkpt>
      <trkpt lat="44.45216" lon="6.85697">
        <ele>1845.33</ele>
        <time>2018-04-16T04:47:37.000Z</time>
      </trkpt>
      <trkpt lat="44.45201" lon="6.85678">
        <ele>1846.87</ele>
        <time>2018-04-16T04:47:53.000Z</time>
      </trkpt>
      <trkpt lat="44.45185" lon="6.85687">
        <ele>1854.19</ele>
        <time>2018-04-16T04:49:29.000Z</time>
      </trkpt>
      <trkpt lat="44.45164" lon="6.85682">
        <ele>1859.66</ele>
        <time>2018-04-16T04:50:17.000Z</time>
      </trkpt>
      <trkpt lat="44.45146" lon="6.85687">
        <ele>1867.93</ele>
        <time>2018-04-16T04:51:09.000Z</time>
      </trkpt>
      <trkpt lat="44.45134" lon="6.85708">
        <ele>1874.04</ele>
        <time>2018-04-16T04:52:25.000Z</time>
      </trkpt>
      <trkpt lat="44.45129" lon="6.85735">
        <ele>1880.01</ele>
        <time>2018-04-16T04:52:57.000Z</time>
      </trkpt>
      <trkpt lat="44.45123" lon="6.85763">
        <ele>1884.53</ele>
        <time>2018-04-16T04:53:29.000Z</time>
      </trkpt>
      <trkpt lat="44.4512" lon="6.85789">
        <ele>1888.19</ele>
        <time>2018-04-16T04:53:57.000Z</time>
      </trkpt>
      <trkpt lat="44.45116" lon="6.85815">
        <ele>1893.05</ele>
        <time>2018-04-16T04:54:29.000Z</time>
      </trkpt>
      <trkpt lat="44.4511" lon="6.8584">
        <ele>1896.84</ele>
        <time>2018-04-16T04:54:57.000Z</time>
      </trkpt>
      <trkpt lat="44.45101" lon="6.85864">
        <ele>1901.44</ele>
        <time>2018-04-16T04:55:29.000Z</time>
      </trkpt>
      <trkpt lat="44.45093" lon="6.85889">
        <ele>1906.14</ele>
        <time>2018-04-16T04:55:57.000Z</time>
      </trkpt>
      <trkpt lat="44.45087" lon="6.85915">
        <ele>1911.8</ele>
        <time>2018-04-16T04:56:29.000Z</time>
      </trkpt>
      <trkpt lat="44.45081" lon="6.8594">
        <ele>1916.83</ele>
        <time>2018-04-16T04:56:57.000Z</time>
      </trkpt>
      <trkpt lat="44.451" lon="6.85941">
        <ele>1920.2</ele>
        <time>2018-04-16T04:57:33.000Z</time>
      </trkpt>
      <trkpt lat="44.45118" lon="6.8594">
        <ele>1919.48</ele>
        <time>2018-04-16T04:57:57.000Z</time>
      </trkpt>
      <trkpt lat="44.45136" lon="6.85946">
        <ele>1921.39</ele>
        <time>2018-04-16T04:59:01.000Z</time>
      </trkpt>
      <trkpt lat="44.45136" lon="6.85972">
        <ele>1929.89</ele>
        <time>2018-04-16T04:59:45.000Z</time>
      </trkpt>
      <trkpt lat="44.45126" lon="6.85998">
        <ele>1934.57</ele>
        <time>2018-04-16T05:00:09.000Z</time>
      </trkpt>
      <trkpt lat="44.45116" lon="6.86019">
        <ele>1939.18</ele>
        <time>2018-04-16T05:00:33.000Z</time>
      </trkpt>
      <trkpt lat="44.45123" lon="6.86043">
        <ele>1952.07</ele>
        <time>2018-04-16T05:06:16.000Z</time>
      </trkpt>
      <trkpt lat="44.45137" lon="6.86063">
        <ele>1956.22</ele>
        <time>2018-04-16T05:07:08.000Z</time>
      </trkpt>
      <trkpt lat="44.4514" lon="6.86088">
        <ele>1960.03</ele>
        <time>2018-04-16T05:07:56.000Z</time>
      </trkpt>
      <trkpt lat="44.45155" lon="6.86111">
        <ele>1966.11</ele>
        <time>2018-04-16T05:08:32.000Z</time>
      </trkpt>
      <trkpt lat="44.45166" lon="6.86133">
        <ele>1976.36</ele>
        <time>2018-04-16T05:09:52.000Z</time>
      </trkpt>
      <trkpt lat="44.45169" lon="6.86158">
        <ele>1986.84</ele>
        <time>2018-04-16T05:11:16.000Z</time>
      </trkpt>
      <trkpt lat="44.4517" lon="6.86183">
        <ele>1999.66</ele>
        <time>2018-04-16T05:12:48.000Z</time>
      </trkpt>
      <trkpt lat="44.45178" lon="6.86206">
        <ele>2009.9</ele>
        <time>2018-04-16T05:14:08.000Z</time>
      </trkpt>
      <trkpt lat="44.45177" lon="6.86232">
        <ele>2024.53</ele>
        <time>2018-04-16T05:16:12.000Z</time>
      </trkpt>
      <trkpt lat="44.45184" lon="6.86257">
        <ele>2040.6</ele>
        <time>2018-04-16T05:17:36.000Z</time>
      </trkpt>
      <trkpt lat="44.4518" lon="6.86282">
        <ele>2053.01</ele>
        <time>2018-04-16T05:19:00.000Z</time>
      </trkpt>
      <trkpt lat="44.4517" lon="6.86303">
        <ele>2060.01</ele>
        <time>2018-04-16T05:19:44.000Z</time>
      </trkpt>
      <trkpt lat="44.45188" lon="6.86315">
        <ele>2065.37</ele>
        <time>2018-04-16T05:21:28.000Z</time>
      </trkpt>
      <trkpt lat="44.45193" lon="6.8634">
        <ele>2066.29</ele>
        <time>2018-04-16T05:22:20.000Z</time>
      </trkpt>
      <trkpt lat="44.45184" lon="6.86365">
        <ele>2071.08</ele>
        <time>2018-04-16T05:22:45.000Z</time>
      </trkpt>
      <trkpt lat="44.45176" lon="6.8639">
        <ele>2075.47</ele>
        <time>2018-04-16T05:23:09.000Z</time>
      </trkpt>
      <trkpt lat="44.45195" lon="6.86394">
        <ele>2083.74</ele>
        <time>2018-04-16T05:24:33.000Z</time>
      </trkpt>
      <trkpt lat="44.45214" lon="6.86396">
        <ele>2087.16</ele>
        <time>2018-04-16T05:25:21.000Z</time>
      </trkpt>
      <trkpt lat="44.45221" lon="6.8642">
        <ele>2093.96</ele>
        <time>2018-04-16T05:26:37.000Z</time>
      </trkpt>
      <trkpt lat="44.45234" lon="6.86439">
        <ele>2110.16</ele>
        <time>2018-04-16T05:28:01.000Z</time>
      </trkpt>
      <trkpt lat="44.45238" lon="6.86468">
        <ele>2126.94</ele>
        <time>2018-04-16T05:29:25.000Z</time>
      </trkpt>
      <trkpt lat="44.45256" lon="6.86481">
        <ele>2135.28</ele>
        <time>2018-04-16T05:30:17.000Z</time>
      </trkpt>
      <trkpt lat="44.45248" lon="6.86508">
        <ele>2165.33</ele>
        <time>2018-04-16T05:40:13.000Z</time>
      </trkpt>
      <trkpt lat="44.45257" lon="6.86531">
        <ele>2172.2</ele>
        <time>2018-04-16T05:42:00.000Z</time>
      </trkpt>
      <trkpt lat="44.45275" lon="6.86529">
        <ele>2180.78</ele>
        <time>2018-04-16T05:42:32.000Z</time>
      </trkpt>
      <trkpt lat="44.45294" lon="6.86532">
        <ele>2190.41</ele>
        <time>2018-04-16T05:43:04.000Z</time>
      </trkpt>
      <trkpt lat="44.45313" lon="6.86545">
        <ele>2201.39</ele>
        <time>2018-04-16T05:43:52.000Z</time>
      </trkpt>
      <trkpt lat="44.45332" lon="6.86549">
        <ele>2207.29</ele>
        <time>2018-04-16T05:44:20.000Z</time>
      </trkpt>
      <trkpt lat="44.45351" lon="6.86556">
        <ele>2214.87</ele>
        <time>2018-04-16T05:45:12.000Z</time>
      </trkpt>
      <trkpt lat="44.45369" lon="6.86554">
        <ele>2217.91</ele>
        <time>2018-04-16T05:45:48.000Z</time>
      </trkpt>
      <trkpt lat="44.45358" lon="6.86578">
        <ele>2216.81</ele>
        <time>2018-04-16T05:46:32.000Z</time>
      </trkpt>
      <trkpt lat="44.45376" lon="6.86571">
        <ele>2224.98</ele>
        <time>2018-04-16T05:47:24.000Z</time>
      </trkpt>
      <trkpt lat="44.45387" lon="6.86592">
        <ele>2233.88</ele>
        <time>2018-04-16T05:58:04.000Z</time>
      </trkpt>
      <trkpt lat="44.45394" lon="6.86616">
        <ele>2251.11</ele>
        <time>2018-04-16T06:00:13.000Z</time>
      </trkpt>
      <trkpt lat="44.45389" lon="6.86643">
        <ele>2263.94</ele>
        <time>2018-04-16T06:01:45.000Z</time>
      </trkpt>
      <trkpt lat="44.45408" lon="6.8665">
        <ele>2271.8</ele>
        <time>2018-04-16T06:02:49.000Z</time>
      </trkpt>
      <trkpt lat="44.45411" lon="6.86677">
        <ele>2282.8</ele>
        <time>2018-04-16T06:04:21.000Z</time>
      </trkpt>
      <trkpt lat="44.45405" lon="6.86705">
        <ele>2293.31</ele>
        <time>2018-04-16T06:06:09.000Z</time>
      </trkpt>
      <trkpt lat="44.45401" lon="6.86731">
        <ele>2306.94</ele>
        <time>2018-04-16T06:09:37.000Z</time>
      </trkpt>
      <trkpt lat="44.454" lon="6.86757">
        <ele>2315.23</ele>
        <time>2018-04-16T06:11:09.000Z</time>
      </trkpt>
      <trkpt lat="44.45392" lon="6.86782">
        <ele>2330.06</ele>
        <time>2018-04-16T06:29:24.000Z</time>
      </trkpt>
      <trkpt lat="44.45387" lon="6.86807">
        <ele>2334.07</ele>
        <time>2018-04-16T06:29:52.000Z</time>
      </trkpt>
      <trkpt lat="44.45393" lon="6.86831">
        <ele>2339.08</ele>
        <time>2018-04-16T06:30:44.000Z</time>
      </trkpt>
      <trkpt lat="44.45398" lon="6.86857">
        <ele>2343.15</ele>
        <time>2018-04-16T06:31:12.000Z</time>
      </trkpt>
      <trkpt lat="44.45398" lon="6.86886">
        <ele>2348.21</ele>
        <time>2018-04-16T06:31:48.000Z</time>
      </trkpt>
      <trkpt lat="44.45396" lon="6.86911">
        <ele>2352.98</ele>
        <time>2018-04-16T06:32:20.000Z</time>
      </trkpt>
      <trkpt lat="44.45413" lon="6.86927">
        <ele>2360.81</ele>
        <time>2018-04-16T06:33:16.000Z</time>
      </trkpt>
      <trkpt lat="44.45432" lon="6.86929">
        <ele>2365.35</ele>
        <time>2018-04-16T06:33:44.000Z</time>
      </trkpt>
      <trkpt lat="44.45449" lon="6.8694">
        <ele>2368.81</ele>
        <time>2018-04-16T06:34:16.000Z</time>
      </trkpt>
      <trkpt lat="44.45465" lon="6.86953">
        <ele>2372.84</ele>
        <time>2018-04-16T06:34:48.000Z</time>
      </trkpt>
      <trkpt lat="44.45479" lon="6.8697">
        <ele>2376.24</ele>
        <time>2018-04-16T06:35:16.000Z</time>
      </trkpt>
      <trkpt lat="44.45493" lon="6.86988">
        <ele>2378.55</ele>
        <time>2018-04-16T06:35:44.000Z</time>
      </trkpt>
      <trkpt lat="44.45506" lon="6.8701">
        <ele>2384.93</ele>
        <time>2018-04-16T06:36:57.000Z</time>
      </trkpt>
      <trkpt lat="44.45522" lon="6.87022">
        <ele>2389.16</ele>
        <time>2018-04-16T06:37:41.000Z</time>
      </trkpt>
      <trkpt lat="44.45539" lon="6.87031">
        <ele>2391.16</ele>
        <time>2018-04-16T06:38:09.000Z</time>
      </trkpt>
      <trkpt lat="44.45561" lon="6.87042">
        <ele>2394.96</ele>
        <time>2018-04-16T06:38:41.000Z</time>
      </trkpt>
      <trkpt lat="44.45578" lon="6.87054">
        <ele>2397.91</ele>
        <time>2018-04-16T06:39:21.000Z</time>
      </trkpt>
      <trkpt lat="44.45599" lon="6.87067">
        <ele>2402.41</ele>
        <time>2018-04-16T06:39:49.000Z</time>
      </trkpt>
      <trkpt lat="44.45601" lon="6.87093">
        <ele>2413.24</ele>
        <time>2018-04-16T06:41:21.000Z</time>
      </trkpt>
      <trkpt lat="44.45602" lon="6.8712">
        <ele>2419.99</ele>
        <time>2018-04-16T06:41:53.000Z</time>
      </trkpt>
      <trkpt lat="44.456" lon="6.87148">
        <ele>2424.04</ele>
        <time>2018-04-16T06:43:09.000Z</time>
      </trkpt>
      <trkpt lat="44.45599" lon="6.87174">
        <ele>2426.72</ele>
        <time>2018-04-16T06:43:37.000Z</time>
      </trkpt>
      <trkpt lat="44.45594" lon="6.872">
        <ele>2428.4</ele>
        <time>2018-04-16T06:44:13.000Z</time>
      </trkpt>
      <trkpt lat="44.45595" lon="6.87227">
        <ele>2434.53</ele>
        <time>2018-04-16T06:44:49.000Z</time>
      </trkpt>
      <trkpt lat="44.45587" lon="6.87252">
        <ele>2441.42</ele>
        <time>2018-04-16T06:45:17.000Z</time>
      </trkpt>
      <trkpt lat="44.4557" lon="6.87263">
        <ele>2453.1</ele>
        <time>2018-04-16T06:46:09.000Z</time>
      </trkpt>
      <trkpt lat="44.45557" lon="6.87282">
        <ele>2460.79</ele>
        <time>2018-04-16T06:46:53.000Z</time>
      </trkpt>
      <trkpt lat="44.45571" lon="6.87299">
        <ele>2464.14</ele>
        <time>2018-04-16T06:47:29.000Z</time>
      </trkpt>
      <trkpt lat="44.45555" lon="6.87318">
        <ele>2468.87</ele>
        <time>2018-04-16T06:48:17.000Z</time>
      </trkpt>
      <trkpt lat="44.45561" lon="6.87343">
        <ele>2475.97</ele>
        <time>2018-04-16T06:49:25.000Z</time>
      </trkpt>
      <trkpt lat="44.45547" lon="6.87364">
        <ele>2486.73</ele>
        <time>2018-04-16T06:50:29.000Z</time>
      </trkpt>
      <trkpt lat="44.45557" lon="6.87387">
        <ele>2495.95</ele>
        <time>2018-04-16T06:51:25.000Z</time>
      </trkpt>
      <trkpt lat="44.45549" lon="6.87409">
        <ele>2507.07</ele>
        <time>2018-04-16T06:52:53.000Z</time>
      </trkpt>
      <trkpt lat="44.45565" lon="6.87419">
        <ele>2512.01</ele>
        <time>2018-04-16T06:53:24.000Z</time>
      </trkpt>
      <trkpt lat="44.45551" lon="6.87436">
        <ele>2518.69</ele>
        <time>2018-04-16T06:54:12.000Z</time>
      </trkpt>
      <trkpt lat="44.45549" lon="6.87462">
        <ele>2525.42</ele>
        <time>2018-04-16T06:55:16.000Z</time>
      </trkpt>
      <trkpt lat="44.45541" lon="6.87485">
        <ele>2533.38</ele>
        <time>2018-04-16T06:56:20.000Z</time>
      </trkpt>
      <trkpt lat="44.45548" lon="6.8751">
        <ele>2539.87</ele>
        <time>2018-04-16T06:57:00.000Z</time>
      </trkpt>
      <trkpt lat="44.45539" lon="6.87535">
        <ele>2544.54</ele>
        <time>2018-04-16T06:57:40.000Z</time>
      </trkpt>
      <trkpt lat="44.45529" lon="6.87557">
        <ele>2548.91</ele>
        <time>2018-04-16T06:58:08.000Z</time>
      </trkpt>
      <trkpt lat="44.45539" lon="6.8758">
        <ele>2552.22</ele>
        <time>2018-04-16T06:58:44.000Z</time>
      </trkpt>
      <trkpt lat="44.45525" lon="6.87596">
        <ele>2559.46</ele>
        <time>2018-04-16T06:59:16.000Z</time>
      </trkpt>
      <trkpt lat="44.45507" lon="6.87605">
        <ele>2564.34</ele>
        <time>2018-04-16T06:59:48.000Z</time>
      </trkpt>
      <trkpt lat="44.45491" lon="6.8762">
        <ele>2567.27</ele>
        <time>2018-04-16T07:00:16.000Z</time>
      </trkpt>
      <trkpt lat="44.45498" lon="6.87644">
        <ele>2573.3</ele>
        <time>2018-04-16T07:01:24.000Z</time>
      </trkpt>
      <trkpt lat="44.45512" lon="6.87666">
        <ele>2575.74</ele>
        <time>2018-04-16T07:02:00.000Z</time>
      </trkpt>
      <trkpt lat="44.45521" lon="6.87689">
        <ele>2580.19</ele>
        <time>2018-04-16T07:02:32.000Z</time>
      </trkpt>
      <trkpt lat="44.45527" lon="6.87714">
        <ele>2584.69</ele>
        <time>2018-04-16T07:02:56.000Z</time>
      </trkpt>
      <trkpt lat="44.45533" lon="6.8774">
        <ele>2588.44</ele>
        <time>2018-04-16T07:03:20.000Z</time>
      </trkpt>
      <trkpt lat="44.45539" lon="6.87764">
        <ele>2592.98</ele>
        <time>2018-04-16T07:03:52.000Z</time>
      </trkpt>
      <trkpt lat="44.45538" lon="6.8779">
        <ele>2596.37</ele>
        <time>2018-04-16T07:04:20.000Z</time>
      </trkpt>
      <trkpt lat="44.45532" lon="6.87816">
        <ele>2603.07</ele>
        <time>2018-04-16T07:04:52.000Z</time>
      </trkpt>
      <trkpt lat="44.45526" lon="6.8784">
        <ele>2608.41</ele>
        <time>2018-04-16T07:05:24.000Z</time>
      </trkpt>
      <trkpt lat="44.45541" lon="6.87853">
        <ele>2611.11</ele>
        <time>2018-04-16T07:05:48.000Z</time>
      </trkpt>
      <trkpt lat="44.4555" lon="6.87878">
        <ele>2614.98</ele>
        <time>2018-04-16T07:06:20.000Z</time>
      </trkpt>
      <trkpt lat="44.45549" lon="6.87906">
        <ele>2618.99</ele>
        <time>2018-04-16T07:06:48.000Z</time>
      </trkpt>
      <trkpt lat="44.45545" lon="6.87932">
        <ele>2623.41</ele>
        <time>2018-04-16T07:07:16.000Z</time>
      </trkpt>
      <trkpt lat="44.45546" lon="6.87959">
        <ele>2626.48</ele>
        <time>2018-04-16T07:07:40.000Z</time>
      </trkpt>
      <trkpt lat="44.45541" lon="6.87984">
        <ele>2625.84</ele>
        <time>2018-04-16T07:09:16.000Z</time>
      </trkpt>
      <trkpt lat="44.45512" lon="6.87967">
        <ele>2629.93</ele>
        <time>2018-04-16T07:28:01.000Z</time>
      </trkpt>
      <trkpt lat="44.45491" lon="6.87977">
        <ele>2628.85</ele>
        <time>2018-04-16T07:28:05.000Z</time>
      </trkpt>
      <trkpt lat="44.45473" lon="6.87991">
        <ele>2628.21</ele>
        <time>2018-04-16T07:28:13.000Z</time>
      </trkpt>
      <trkpt lat="44.45454" lon="6.87978">
        <ele>2627.7</ele>
        <time>2018-04-16T07:28:21.000Z</time>
      </trkpt>
      <trkpt lat="44.45441" lon="6.87949">
        <ele>2624.94</ele>
        <time>2018-04-16T07:29:13.000Z</time>
      </trkpt>
      <trkpt lat="44.45419" lon="6.87917">
        <ele>2619.8</ele>
        <time>2018-04-16T07:29:21.000Z</time>
      </trkpt>
      <trkpt lat="44.45396" lon="6.87914">
        <ele>2613.58</ele>
        <time>2018-04-16T07:30:17.000Z</time>
      </trkpt>
      <trkpt lat="44.45387" lon="6.8795">
        <ele>2601.74</ele>
        <time>2018-04-16T07:30:41.000Z</time>
      </trkpt>
      <trkpt lat="44.45399" lon="6.87994">
        <ele>2593.16</ele>
        <time>2018-04-16T07:30:49.000Z</time>
      </trkpt>
      <trkpt lat="44.45377" lon="6.88021">
        <ele>2582.08</ele>
        <time>2018-04-16T07:30:57.000Z</time>
      </trkpt>
      <trkpt lat="44.45361" lon="6.88042">
        <ele>2575.63</ele>
        <time>2018-04-16T07:31:01.000Z</time>
      </trkpt>
      <trkpt lat="44.45338" lon="6.8806">
        <ele>2568.24</ele>
        <time>2018-04-16T07:31:05.000Z</time>
      </trkpt>
      <trkpt lat="44.45319" lon="6.88086">
        <ele>2561.18</ele>
        <time>2018-04-16T07:31:09.000Z</time>
      </trkpt>
      <trkpt lat="44.45297" lon="6.88115">
        <ele>2553.79</ele>
        <time>2018-04-16T07:31:13.000Z</time>
      </trkpt>
      <trkpt lat="44.4528" lon="6.88126">
        <ele>2546.74</ele>
        <time>2018-04-16T07:31:57.000Z</time>
      </trkpt>
      <trkpt lat="44.45251" lon="6.88156">
        <ele>2504.54</ele>
        <time>2018-04-16T07:33:09.000Z</time>
      </trkpt>
      <trkpt lat="44.45217" lon="6.88171">
        <ele>2489.38</ele>
        <time>2018-04-16T07:33:17.000Z</time>
      </trkpt>
      <trkpt lat="44.45194" lon="6.88177">
        <ele>2484.49</ele>
        <time>2018-04-16T07:33:21.000Z</time>
      </trkpt>
      <trkpt lat="44.45171" lon="6.88212">
        <ele>2478.92</ele>
        <time>2018-04-16T07:33:25.000Z</time>
      </trkpt>
      <trkpt lat="44.45148" lon="6.88241">
        <ele>2473.04</ele>
        <time>2018-04-16T07:33:29.000Z</time>
      </trkpt>
      <trkpt lat="44.45121" lon="6.88253">
        <ele>2468.03</ele>
        <time>2018-04-16T07:33:33.000Z</time>
      </trkpt>
      <trkpt lat="44.451" lon="6.88271">
        <ele>2464.09</ele>
        <time>2018-04-16T07:33:37.000Z</time>
      </trkpt>
      <trkpt lat="44.45077" lon="6.88286">
        <ele>2460.26</ele>
        <time>2018-04-16T07:33:41.000Z</time>
      </trkpt>
      <trkpt lat="44.45054" lon="6.88291">
        <ele>2455.54</ele>
        <time>2018-04-16T07:33:45.000Z</time>
      </trkpt>
      <trkpt lat="44.45026" lon="6.88299">
        <ele>2450.46</ele>
        <time>2018-04-16T07:33:49.000Z</time>
      </trkpt>
      <trkpt lat="44.45003" lon="6.88284">
        <ele>2445.77</ele>
        <time>2018-04-16T07:33:53.000Z</time>
      </trkpt>
      <trkpt lat="44.4498" lon="6.88285">
        <ele>2438.52</ele>
        <time>2018-04-16T07:33:57.000Z</time>
      </trkpt>
      <trkpt lat="44.44963" lon="6.88268">
        <ele>2430.41</ele>
        <time>2018-04-16T07:34:13.000Z</time>
      </trkpt>
      <trkpt lat="44.44928" lon="6.88299">
        <ele>2422</ele>
        <time>2018-04-16T07:35:01.000Z</time>
      </trkpt>
      <trkpt lat="44.449" lon="6.88306">
        <ele>2417.85</ele>
        <time>2018-04-16T07:35:05.000Z</time>
      </trkpt>
      <trkpt lat="44.44863" lon="6.8833">
        <ele>2416.61</ele>
        <time>2018-04-16T07:35:09.000Z</time>
      </trkpt>
      <trkpt lat="44.44825" lon="6.88332">
        <ele>2410.66</ele>
        <time>2018-04-16T07:35:13.000Z</time>
      </trkpt>
      <trkpt lat="44.44797" lon="6.88324">
        <ele>2400.45</ele>
        <time>2018-04-16T07:35:17.000Z</time>
      </trkpt>
      <trkpt lat="44.44816" lon="6.88325">
        <ele>2351.83</ele>
        <time>2018-04-16T07:44:01.000Z</time>
      </trkpt>
      <trkpt lat="44.44832" lon="6.88341">
        <ele>2350.23</ele>
        <time>2018-04-16T07:44:21.000Z</time>
      </trkpt>
      <trkpt lat="44.44849" lon="6.88356">
        <ele>2348.75</ele>
        <time>2018-04-16T07:44:45.000Z</time>
      </trkpt>
      <trkpt lat="44.44866" lon="6.88376">
        <ele>2349.38</ele>
        <time>2018-04-16T07:45:14.000Z</time>
      </trkpt>
      <trkpt lat="44.4488" lon="6.88397">
        <ele>2351.67</ele>
        <time>2018-04-16T07:45:42.000Z</time>
      </trkpt>
      <trkpt lat="44.44893" lon="6.88418">
        <ele>2354.61</ele>
        <time>2018-04-16T07:46:10.000Z</time>
      </trkpt>
      <trkpt lat="44.44904" lon="6.88445">
        <ele>2358.83</ele>
        <time>2018-04-16T07:46:42.000Z</time>
      </trkpt>
      <trkpt lat="44.44906" lon="6.88471">
        <ele>2362.42</ele>
        <time>2018-04-16T07:47:14.000Z</time>
      </trkpt>
      <trkpt lat="44.44925" lon="6.88476">
        <ele>2363.92</ele>
        <time>2018-04-16T07:48:10.000Z</time>
      </trkpt>
      <trkpt lat="44.44943" lon="6.88474">
        <ele>2365.3</ele>
        <time>2018-04-16T07:48:34.000Z</time>
      </trkpt>
      <trkpt lat="44.44962" lon="6.88464">
        <ele>2369.29</ele>
        <time>2018-04-16T07:49:06.000Z</time>
      </trkpt>
      <trkpt lat="44.44978" lon="6.88449">
        <ele>2373.83</ele>
        <time>2018-04-16T07:49:34.000Z</time>
      </trkpt>
      <trkpt lat="44.4499" lon="6.88469">
        <ele>2379.43</ele>
        <time>2018-04-16T07:50:06.000Z</time>
      </trkpt>
      <trkpt lat="44.45004" lon="6.8845">
        <ele>2389.49</ele>
        <time>2018-04-16T07:50:54.000Z</time>
      </trkpt>
      <trkpt lat="44.45024" lon="6.88456">
        <ele>2400.26</ele>
        <time>2018-04-16T07:52:06.000Z</time>
      </trkpt>
      <trkpt lat="44.45038" lon="6.88473">
        <ele>2403.01</ele>
        <time>2018-04-16T07:52:26.000Z</time>
      </trkpt>
      <trkpt lat="44.4505" lon="6.88453">
        <ele>2407.83</ele>
        <time>2018-04-16T07:53:10.000Z</time>
      </trkpt>
      <trkpt lat="44.45066" lon="6.88439">
        <ele>2410.65</ele>
        <time>2018-04-16T07:53:38.000Z</time>
      </trkpt>
      <trkpt lat="44.45085" lon="6.88439">
        <ele>2413.15</ele>
        <time>2018-04-16T07:54:34.000Z</time>
      </trkpt>
      <trkpt lat="44.45105" lon="6.88443">
        <ele>2418.2</ele>
        <time>2018-04-16T07:55:02.000Z</time>
      </trkpt>
      <trkpt lat="44.45107" lon="6.88472">
        <ele>2424.75</ele>
        <time>2018-04-16T07:55:30.000Z</time>
      </trkpt>
      <trkpt lat="44.45108" lon="6.885">
        <ele>2433.35</ele>
        <time>2018-04-16T07:56:02.000Z</time>
      </trkpt>
      <trkpt lat="44.45126" lon="6.88507">
        <ele>2448.23</ele>
        <time>2018-04-16T07:57:02.000Z</time>
      </trkpt>
      <trkpt lat="44.45146" lon="6.88506">
        <ele>2452.34</ele>
        <time>2018-04-16T07:57:26.000Z</time>
      </trkpt>
      <trkpt lat="44.45152" lon="6.8853">
        <ele>2460.32</ele>
        <time>2018-04-16T07:58:10.000Z</time>
      </trkpt>
      <trkpt lat="44.4517" lon="6.88525">
        <ele>2464.73</ele>
        <time>2018-04-16T07:58:34.000Z</time>
      </trkpt>
      <trkpt lat="44.4519" lon="6.88526">
        <ele>2474.74</ele>
        <time>2018-04-16T08:00:30.000Z</time>
      </trkpt>
      <trkpt lat="44.45205" lon="6.88509">
        <ele>2478.6</ele>
        <time>2018-04-16T08:00:58.000Z</time>
      </trkpt>
      <trkpt lat="44.45219" lon="6.88491">
        <ele>2481.43</ele>
        <time>2018-04-16T08:01:22.000Z</time>
      </trkpt>
      <trkpt lat="44.45231" lon="6.8847">
        <ele>2484.16</ele>
        <time>2018-04-16T08:01:45.000Z</time>
      </trkpt>
      <trkpt lat="44.45225" lon="6.88446">
        <ele>2485.02</ele>
        <time>2018-04-16T08:02:05.000Z</time>
      </trkpt>
      <trkpt lat="44.45219" lon="6.88419">
        <ele>2485.79</ele>
        <time>2018-04-16T08:02:25.000Z</time>
      </trkpt>
      <trkpt lat="44.45222" lon="6.88388">
        <ele>2485.11</ele>
        <time>2018-04-16T08:02:45.000Z</time>
      </trkpt>
      <trkpt lat="44.45237" lon="6.88374">
        <ele>2484.82</ele>
        <time>2018-04-16T08:03:05.000Z</time>
      </trkpt>
      <trkpt lat="44.45257" lon="6.88365">
        <ele>2485.37</ele>
        <time>2018-04-16T08:03:33.000Z</time>
      </trkpt>
      <trkpt lat="44.45274" lon="6.88351">
        <ele>2486.23</ele>
        <time>2018-04-16T08:03:57.000Z</time>
      </trkpt>
      <trkpt lat="44.4529" lon="6.88338">
        <ele>2488.66</ele>
        <time>2018-04-16T08:04:25.000Z</time>
      </trkpt>
      <trkpt lat="44.45306" lon="6.88326">
        <ele>2491.35</ele>
        <time>2018-04-16T08:04:49.000Z</time>
      </trkpt>
      <trkpt lat="44.45323" lon="6.88314">
        <ele>2494.03</ele>
        <time>2018-04-16T08:05:13.000Z</time>
      </trkpt>
      <trkpt lat="44.4534" lon="6.88299">
        <ele>2498.74</ele>
        <time>2018-04-16T08:05:41.000Z</time>
      </trkpt>
      <trkpt lat="44.45356" lon="6.88283">
        <ele>2504.59</ele>
        <time>2018-04-16T08:06:09.000Z</time>
      </trkpt>
      <trkpt lat="44.4537" lon="6.88262">
        <ele>2512.54</ele>
        <time>2018-04-16T08:07:13.000Z</time>
      </trkpt>
      <trkpt lat="44.45381" lon="6.8824">
        <ele>2521.9</ele>
        <time>2018-04-16T08:09:49.000Z</time>
      </trkpt>
      <trkpt lat="44.45392" lon="6.88262">
        <ele>2525.71</ele>
        <time>2018-04-16T08:10:13.000Z</time>
      </trkpt>
      <trkpt lat="44.45402" lon="6.88283">
        <ele>2531.27</ele>
        <time>2018-04-16T08:10:49.000Z</time>
      </trkpt>
      <trkpt lat="44.45411" lon="6.88308">
        <ele>2536.47</ele>
        <time>2018-04-16T08:11:17.000Z</time>
      </trkpt>
      <trkpt lat="44.4542" lon="6.88279">
        <ele>2543.22</ele>
        <time>2018-04-16T08:12:29.000Z</time>
      </trkpt>
      <trkpt lat="44.45414" lon="6.88252">
        <ele>2542.62</ele>
        <time>2018-04-16T08:13:41.000Z</time>
      </trkpt>
      <trkpt lat="44.45404" lon="6.88225">
        <ele>2543.74</ele>
        <time>2018-04-16T08:14:09.000Z</time>
      </trkpt>
      <trkpt lat="44.45405" lon="6.88199">
        <ele>2544.82</ele>
        <time>2018-04-16T08:14:29.000Z</time>
      </trkpt>
      <trkpt lat="44.45405" lon="6.88169">
        <ele>2546.63</ele>
        <time>2018-04-16T08:14:53.000Z</time>
      </trkpt>
      <trkpt lat="44.45412" lon="6.88143">
        <ele>2549.67</ele>
        <time>2018-04-16T08:15:37.000Z</time>
      </trkpt>
      <trkpt lat="44.45412" lon="6.88114">
        <ele>2553.99</ele>
        <time>2018-04-16T08:16:09.000Z</time>
      </trkpt>
      <trkpt lat="44.4541" lon="6.88088">
        <ele>2556.03</ele>
        <time>2018-04-16T08:16:33.000Z</time>
      </trkpt>
      <trkpt lat="44.45406" lon="6.88062">
        <ele>2556.51</ele>
        <time>2018-04-16T08:17:05.000Z</time>
      </trkpt>
      <trkpt lat="44.45398" lon="6.8803">
        <ele>2556.01</ele>
        <time>2018-04-16T08:17:29.000Z</time>
      </trkpt>
      <trkpt lat="44.4539" lon="6.88007">
        <ele>2558.82</ele>
        <time>2018-04-16T08:18:01.000Z</time>
      </trkpt>
      <trkpt lat="44.45379" lon="6.87983">
        <ele>2558.93</ele>
        <time>2018-04-16T08:18:30.000Z</time>
      </trkpt>
      <trkpt lat="44.45367" lon="6.87959">
        <ele>2559.5</ele>
        <time>2018-04-16T08:18:54.000Z</time>
      </trkpt>
      <trkpt lat="44.45354" lon="6.87942">
        <ele>2560.08</ele>
        <time>2018-04-16T08:19:18.000Z</time>
      </trkpt>
      <trkpt lat="44.45343" lon="6.87921">
        <ele>2566.32</ele>
        <time>2018-04-16T08:22:14.000Z</time>
      </trkpt>
      <trkpt lat="44.4536" lon="6.87913">
        <ele>2572.37</ele>
        <time>2018-04-16T08:23:38.000Z</time>
      </trkpt>
      <trkpt lat="44.45377" lon="6.87899">
        <ele>2579.33</ele>
        <time>2018-04-16T08:24:18.000Z</time>
      </trkpt>
      <trkpt lat="44.45396" lon="6.87907">
        <ele>2589.25</ele>
        <time>2018-04-16T08:25:06.000Z</time>
      </trkpt>
      <trkpt lat="44.45415" lon="6.8791">
        <ele>2602.61</ele>
        <time>2018-04-16T08:26:46.000Z</time>
      </trkpt>
      <trkpt lat="44.45429" lon="6.87927">
        <ele>2607.74</ele>
        <time>2018-04-16T08:27:38.000Z</time>
      </trkpt>
      <trkpt lat="44.45445" lon="6.87939">
        <ele>2611.05</ele>
        <time>2018-04-16T08:28:30.000Z</time>
      </trkpt>
      <trkpt lat="44.45449" lon="6.87963">
        <ele>2615.23</ele>
        <time>2018-04-16T08:30:38.000Z</time>
      </trkpt>
      <trkpt lat="44.45467" lon="6.87971">
        <ele>2617.6</ele>
        <time>2018-04-16T08:34:42.000Z</time>
      </trkpt>
      <trkpt lat="44.45488" lon="6.87978">
        <ele>2619.3</ele>
        <time>2018-04-16T08:35:10.000Z</time>
      </trkpt>
      <trkpt lat="44.45508" lon="6.87975">
        <ele>2620.35</ele>
        <time>2018-04-16T08:35:34.000Z</time>
      </trkpt>
      <trkpt lat="44.45528" lon="6.87977">
        <ele>2620.91</ele>
        <time>2018-04-16T08:35:58.000Z</time>
      </trkpt>
      <trkpt lat="44.45544" lon="6.87965">
        <ele>2624.28</ele>
        <time>2018-04-16T08:36:49.000Z</time>
      </trkpt>
      <trkpt lat="44.45504" lon="6.87952">
        <ele>2626.58</ele>
        <time>2018-04-16T08:57:26.000Z</time>
      </trkpt>
      <trkpt lat="44.45486" lon="6.87939">
        <ele>2626.19</ele>
        <time>2018-04-16T08:57:30.000Z</time>
      </trkpt>
      <trkpt lat="44.45456" lon="6.87916">
        <ele>2624.34</ele>
        <time>2018-04-16T08:57:46.000Z</time>
      </trkpt>
      <trkpt lat="44.45428" lon="6.87881">
        <ele>2621.48</ele>
        <time>2018-04-16T08:57:54.000Z</time>
      </trkpt>
      <trkpt lat="44.45415" lon="6.87864">
        <ele>2618.54</ele>
        <time>2018-04-16T08:57:58.000Z</time>
      </trkpt>
      <trkpt lat="44.45394" lon="6.87852">
        <ele>2614.31</ele>
        <time>2018-04-16T08:58:06.000Z</time>
      </trkpt>
      <trkpt lat="44.45366" lon="6.87865">
        <ele>2606.24</ele>
        <time>2018-04-16T08:59:30.000Z</time>
      </trkpt>
      <trkpt lat="44.45345" lon="6.87865">
        <ele>2599.13</ele>
        <time>2018-04-16T08:59:34.000Z</time>
      </trkpt>
      <trkpt lat="44.45313" lon="6.87856">
        <ele>2584.06</ele>
        <time>2018-04-16T08:59:42.000Z</time>
      </trkpt>
      <trkpt lat="44.4528" lon="6.87832">
        <ele>2567.85</ele>
        <time>2018-04-16T08:59:50.000Z</time>
      </trkpt>
      <trkpt lat="44.45258" lon="6.87818">
        <ele>2556.33</ele>
        <time>2018-04-16T08:59:54.000Z</time>
      </trkpt>
      <trkpt lat="44.45239" lon="6.87794">
        <ele>2544.4</ele>
        <time>2018-04-16T08:59:58.000Z</time>
      </trkpt>
      <trkpt lat="44.45218" lon="6.87776">
        <ele>2532.42</ele>
        <time>2018-04-16T09:00:02.000Z</time>
      </trkpt>
      <trkpt lat="44.45194" lon="6.87749">
        <ele>2521.92</ele>
        <time>2018-04-16T09:00:06.000Z</time>
      </trkpt>
      <trkpt lat="44.45175" lon="6.8771">
        <ele>2508.26</ele>
        <time>2018-04-16T09:00:10.000Z</time>
      </trkpt>
      <trkpt lat="44.45168" lon="6.87668">
        <ele>2463.31</ele>
        <time>2018-04-16T09:03:46.000Z</time>
      </trkpt>
      <trkpt lat="44.4518" lon="6.87638">
        <ele>2454.14</ele>
        <time>2018-04-16T09:03:50.000Z</time>
      </trkpt>
      <trkpt lat="44.45189" lon="6.87613">
        <ele>2446.8</ele>
        <time>2018-04-16T09:03:54.000Z</time>
      </trkpt>
      <trkpt lat="44.45204" lon="6.87584">
        <ele>2443.26</ele>
        <time>2018-04-16T09:03:58.000Z</time>
      </trkpt>
      <trkpt lat="44.45216" lon="6.8756">
        <ele>2440.98</ele>
        <time>2018-04-16T09:04:02.000Z</time>
      </trkpt>
      <trkpt lat="44.45229" lon="6.87491">
        <ele>2435.81</ele>
        <time>2018-04-16T09:04:10.000Z</time>
      </trkpt>
      <trkpt lat="44.45228" lon="6.87435">
        <ele>2430.09</ele>
        <time>2018-04-16T09:04:14.000Z</time>
      </trkpt>
      <trkpt lat="44.45236" lon="6.87392">
        <ele>2422.82</ele>
        <time>2018-04-16T09:04:18.000Z</time>
      </trkpt>
      <trkpt lat="44.45242" lon="6.87365">
        <ele>2414.81</ele>
        <time>2018-04-16T09:04:22.000Z</time>
      </trkpt>
      <trkpt lat="44.45247" lon="6.87332">
        <ele>2408.44</ele>
        <time>2018-04-16T09:04:26.000Z</time>
      </trkpt>
      <trkpt lat="44.45251" lon="6.87298">
        <ele>2404.18</ele>
        <time>2018-04-16T09:04:30.000Z</time>
      </trkpt>
      <trkpt lat="44.4526" lon="6.87257">
        <ele>2401.11</ele>
        <time>2018-04-16T09:04:34.000Z</time>
      </trkpt>
      <trkpt lat="44.45266" lon="6.87217">
        <ele>2399.41</ele>
        <time>2018-04-16T09:04:38.000Z</time>
      </trkpt>
      <trkpt lat="44.45278" lon="6.87189">
        <ele>2398.09</ele>
        <time>2018-04-16T09:04:42.000Z</time>
      </trkpt>
      <trkpt lat="44.4528" lon="6.87164">
        <ele>2396.33</ele>
        <time>2018-04-16T09:04:46.000Z</time>
      </trkpt>
      <trkpt lat="44.45295" lon="6.87137">
        <ele>2390.84</ele>
        <time>2018-04-16T09:06:18.000Z</time>
      </trkpt>
      <trkpt lat="44.45309" lon="6.87092">
        <ele>2379.2</ele>
        <time>2018-04-16T09:06:26.000Z</time>
      </trkpt>
      <trkpt lat="44.45312" lon="6.87042">
        <ele>2372.79</ele>
        <time>2018-04-16T09:06:34.000Z</time>
      </trkpt>
      <trkpt lat="44.45306" lon="6.87011">
        <ele>2370.6</ele>
        <time>2018-04-16T09:06:38.000Z</time>
      </trkpt>
      <trkpt lat="44.45302" lon="6.86983">
        <ele>2367.41</ele>
        <time>2018-04-16T09:06:42.000Z</time>
      </trkpt>
      <trkpt lat="44.45298" lon="6.86948">
        <ele>2362.71</ele>
        <time>2018-04-16T09:06:46.000Z</time>
      </trkpt>
      <trkpt lat="44.45298" lon="6.86909">
        <ele>2357.07</ele>
        <time>2018-04-16T09:06:50.000Z</time>
      </trkpt>
      <trkpt lat="44.45299" lon="6.86876">
        <ele>2349.85</ele>
        <time>2018-04-16T09:06:54.000Z</time>
      </trkpt>
      <trkpt lat="44.45289" lon="6.86848">
        <ele>2341.45</ele>
        <time>2018-04-16T09:06:58.000Z</time>
      </trkpt>
      <trkpt lat="44.45273" lon="6.86827">
        <ele>2332.25</ele>
        <time>2018-04-16T09:07:06.000Z</time>
      </trkpt>
      <trkpt lat="44.45278" lon="6.86802">
        <ele>2316.34</ele>
        <time>2018-04-16T09:08:42.000Z</time>
      </trkpt>
      <trkpt lat="44.45281" lon="6.86764">
        <ele>2308.82</ele>
        <time>2018-04-16T09:08:50.000Z</time>
      </trkpt>
      <trkpt lat="44.45277" lon="6.86734">
        <ele>2297.46</ele>
        <time>2018-04-16T09:08:58.000Z</time>
      </trkpt>
      <trkpt lat="44.45287" lon="6.86701">
        <ele>2291.72</ele>
        <time>2018-04-16T09:09:02.000Z</time>
      </trkpt>
      <trkpt lat="44.45293" lon="6.86676">
        <ele>2286.53</ele>
        <time>2018-04-16T09:09:06.000Z</time>
      </trkpt>
      <trkpt lat="44.45297" lon="6.8665">
        <ele>2279.41</ele>
        <time>2018-04-16T09:09:14.000Z</time>
      </trkpt>
      <trkpt lat="44.4528" lon="6.86613">
        <ele>2258.82</ele>
        <time>2018-04-16T09:09:26.000Z</time>
      </trkpt>
      <trkpt lat="44.45269" lon="6.86573">
        <ele>2244.8</ele>
        <time>2018-04-16T09:09:34.000Z</time>
      </trkpt>
      <trkpt lat="44.45259" lon="6.86537">
        <ele>2226.94</ele>
        <time>2018-04-16T09:09:46.000Z</time>
      </trkpt>
      <trkpt lat="44.45243" lon="6.86516">
        <ele>2204.82</ele>
        <time>2018-04-16T09:12:53.000Z</time>
      </trkpt>
      <trkpt lat="44.45219" lon="6.86502">
        <ele>2200.72</ele>
        <time>2018-04-16T09:13:01.000Z</time>
      </trkpt>
      <trkpt lat="44.45204" lon="6.86487">
        <ele>2194.11</ele>
        <time>2018-04-16T09:13:13.000Z</time>
      </trkpt>
      <trkpt lat="44.45201" lon="6.86458">
        <ele>2184</ele>
        <time>2018-04-16T09:13:21.000Z</time>
      </trkpt>
      <trkpt lat="44.452" lon="6.86428">
        <ele>2164.93</ele>
        <time>2018-04-16T09:13:45.000Z</time>
      </trkpt>
      <trkpt lat="44.45184" lon="6.86399">
        <ele>2148.63</ele>
        <time>2018-04-16T09:13:57.000Z</time>
      </trkpt>
      <trkpt lat="44.45187" lon="6.86368">
        <ele>2131.36</ele>
        <time>2018-04-16T09:14:09.000Z</time>
      </trkpt>
      <trkpt lat="44.45187" lon="6.86342">
        <ele>2121.66</ele>
        <time>2018-04-16T09:14:17.000Z</time>
      </trkpt>
      <trkpt lat="44.45179" lon="6.86315">
        <ele>2106.94</ele>
        <time>2018-04-16T09:14:37.000Z</time>
      </trkpt>
      <trkpt lat="44.45172" lon="6.86287">
        <ele>2098.56</ele>
        <time>2018-04-16T09:14:49.000Z</time>
      </trkpt>
      <trkpt lat="44.45167" lon="6.8626">
        <ele>2089.27</ele>
        <time>2018-04-16T09:15:09.000Z</time>
      </trkpt>
      <trkpt lat="44.45154" lon="6.86235">
        <ele>2063.61</ele>
        <time>2018-04-16T09:19:45.000Z</time>
      </trkpt>
      <trkpt lat="44.45152" lon="6.86201">
        <ele>2056.91</ele>
        <time>2018-04-16T09:19:57.000Z</time>
      </trkpt>
      <trkpt lat="44.45152" lon="6.86175">
        <ele>2046.08</ele>
        <time>2018-04-16T09:20:41.000Z</time>
      </trkpt>
      <trkpt lat="44.45166" lon="6.86148">
        <ele>2034.47</ele>
        <time>2018-04-16T09:21:05.000Z</time>
      </trkpt>
      <trkpt lat="44.45167" lon="6.86117">
        <ele>2016.87</ele>
        <time>2018-04-16T09:21:33.000Z</time>
      </trkpt>
      <trkpt lat="44.45145" lon="6.86086">
        <ele>2009.07</ele>
        <time>2018-04-16T09:21:45.000Z</time>
      </trkpt>
      <trkpt lat="44.45143" lon="6.86049">
        <ele>1996.31</ele>
        <time>2018-04-16T09:21:53.000Z</time>
      </trkpt>
      <trkpt lat="44.45132" lon="6.8602">
        <ele>1991.46</ele>
        <time>2018-04-16T09:22:01.000Z</time>
      </trkpt>
      <trkpt lat="44.45131" lon="6.85994">
        <ele>1972.98</ele>
        <time>2018-04-16T09:23:45.000Z</time>
      </trkpt>
      <trkpt lat="44.45134" lon="6.85966">
        <ele>1961.94</ele>
        <time>2018-04-16T09:23:49.000Z</time>
      </trkpt>
      <trkpt lat="44.45132" lon="6.85933">
        <ele>1952.86</ele>
        <time>2018-04-16T09:23:53.000Z</time>
      </trkpt>
      <trkpt lat="44.45121" lon="6.85885">
        <ele>1942.59</ele>
        <time>2018-04-16T09:23:57.000Z</time>
      </trkpt>
      <trkpt lat="44.45121" lon="6.85831">
        <ele>1931.92</ele>
        <time>2018-04-16T09:24:01.000Z</time>
      </trkpt>
      <trkpt lat="44.45122" lon="6.85778">
        <ele>1922.5</ele>
        <time>2018-04-16T09:24:05.000Z</time>
      </trkpt>
      <trkpt lat="44.4514" lon="6.85741">
        <ele>1914.77</ele>
        <time>2018-04-16T09:24:09.000Z</time>
      </trkpt>
      <trkpt lat="44.45143" lon="6.85707">
        <ele>1907.98</ele>
        <time>2018-04-16T09:24:13.000Z</time>
      </trkpt>
      <trkpt lat="44.45144" lon="6.85679">
        <ele>1901.62</ele>
        <time>2018-04-16T09:24:17.000Z</time>
      </trkpt>
      <trkpt lat="44.4515" lon="6.85639">
        <ele>1893.51</ele>
        <time>2018-04-16T09:24:25.000Z</time>
      </trkpt>
      <trkpt lat="44.4515" lon="6.85607">
        <ele>1883.64</ele>
        <time>2018-04-16T09:24:29.000Z</time>
      </trkpt>
      <trkpt lat="44.45148" lon="6.85578">
        <ele>1878.45</ele>
        <time>2018-04-16T09:24:33.000Z</time>
      </trkpt>
      <trkpt lat="44.4514" lon="6.85551">
        <ele>1869.98</ele>
        <time>2018-04-16T09:25:33.000Z</time>
      </trkpt>
      <trkpt lat="44.45154" lon="6.85513">
        <ele>1845.95</ele>
        <time>2018-04-16T09:25:41.000Z</time>
      </trkpt>
      <trkpt lat="44.45157" lon="6.85487">
        <ele>1826.43</ele>
        <time>2018-04-16T09:25:45.000Z</time>
      </trkpt>
      <trkpt lat="44.45172" lon="6.85453">
        <ele>1813.6</ele>
        <time>2018-04-16T09:25:49.000Z</time>
      </trkpt>
      <trkpt lat="44.45167" lon="6.85426">
        <ele>1807.15</ele>
        <time>2018-04-16T09:27:33.000Z</time>
      </trkpt>
      <trkpt lat="44.45167" lon="6.85397">
        <ele>1800.05</ele>
        <time>2018-04-16T09:27:45.000Z</time>
      </trkpt>
      <trkpt lat="44.45171" lon="6.85338">
        <ele>1787.32</ele>
        <time>2018-04-16T09:27:53.000Z</time>
      </trkpt>
      <trkpt lat="44.45166" lon="6.85299">
        <ele>1778.31</ele>
        <time>2018-04-16T09:27:57.000Z</time>
      </trkpt>
      <trkpt lat="44.45178" lon="6.85229">
        <ele>1771.76</ele>
        <time>2018-04-16T09:28:01.000Z</time>
      </trkpt>
      <trkpt lat="44.45168" lon="6.85184">
        <ele>1765.35</ele>
        <time>2018-04-16T09:28:06.000Z</time>
      </trkpt>
      <trkpt lat="44.45169" lon="6.85142">
        <ele>1759.76</ele>
        <time>2018-04-16T09:28:10.000Z</time>
      </trkpt>
      <trkpt lat="44.45161" lon="6.85098">
        <ele>1751.91</ele>
        <time>2018-04-16T09:28:18.000Z</time>
      </trkpt>
      <trkpt lat="44.4514" lon="6.85082">
        <ele>1743.11</ele>
        <time>2018-04-16T09:28:46.000Z</time>
      </trkpt>
      <trkpt lat="44.45134" lon="6.85034">
        <ele>1729.83</ele>
        <time>2018-04-16T09:28:54.000Z</time>
      </trkpt>
      <trkpt lat="44.45127" lon="6.85007">
        <ele>1724.31</ele>
        <time>2018-04-16T09:28:58.000Z</time>
      </trkpt>
      <trkpt lat="44.45118" lon="6.84979">
        <ele>1720.39</ele>
        <time>2018-04-16T09:29:02.000Z</time>
      </trkpt>
      <trkpt lat="44.45113" lon="6.8495">
        <ele>1716.77</ele>
        <time>2018-04-16T09:29:06.000Z</time>
      </trkpt>
      <trkpt lat="44.45099" lon="6.84926">
        <ele>1712.87</ele>
        <time>2018-04-16T09:29:10.000Z</time>
      </trkpt>
      <trkpt lat="44.45097" lon="6.84901">
        <ele>1709.89</ele>
        <time>2018-04-16T09:29:14.000Z</time>
      </trkpt>
      <trkpt lat="44.4508" lon="6.84859">
        <ele>1703.35</ele>
        <time>2018-04-16T09:29:22.000Z</time>
      </trkpt>
      <trkpt lat="44.45077" lon="6.84821">
        <ele>1700.96</ele>
        <time>2018-04-16T09:29:30.000Z</time>
      </trkpt>
      <trkpt lat="44.45052" lon="6.8481">
        <ele>1699.2</ele>
        <time>2018-04-16T09:29:42.000Z</time>
      </trkpt>
    </trkseg>
  </trk>
</gpx>